sensor_id;sensor_type;location;lat;lon;timestamp;P1;durP1;ratioP1;P2;durP2;ratioP2
48026;SDS011;50714;49.208;5.364;2023-08-31T00:09:28;2.47;;;1.30;;
48026;SDS011;50714;49.208;5.364;2023-08-31T00:19:29;1.67;;;1.10;;
48026;SDS011;50714;49.208;5.364;2023-08-31T00:29:29;2.35;;;1.40;;
48026;SDS011;50714;49.208;5.364;2023-08-31T00:39:30;1.58;;;1.20;;
48026;SDS011;50714;49.208;5.364;2023-08-31T00:49:31;1.90;;;0.95;;
48026;SDS011;50714;49.208;5.364;2023-08-31T00:59:31;1.20;;;0.90;;
48026;SDS011;50714;49.208;5.364;2023-08-31T01:09:34;2.33;;;1.40;;
48026;SDS011;50714;49.208;5.364;2023-08-31T01:19:43;2.30;;;1.30;;
48026;SDS011;50714;49.208;5.364;2023-08-31T01:29:47;1.90;;;1.20;;
48026;SDS011;50714;49.208;5.364;2023-08-31T01:39:58;1.77;;;1.00;;
48026;SDS011;50714;49.208;5.364;2023-08-31T01:50:05;2.00;;;1.20;;
48026;SDS011;50714;49.208;5.364;2023-08-31T02:00:06;1.92;;;1.20;;
48026;SDS011;50714;49.208;5.364;2023-08-31T02:10:08;1.85;;;1.30;;
48026;SDS011;50714;49.208;5.364;2023-08-31T02:20:09;2.17;;;1.30;;
48026;SDS011;50714;49.208;5.364;2023-08-31T02:30:10;1.27;;;1.17;;
48026;SDS011;50714;49.208;5.364;2023-08-31T02:40:10;3.87;;;1.30;;
48026;SDS011;50714;49.208;5.364;2023-08-31T02:50:11;1.98;;;1.40;;
48026;SDS011;50714;49.208;5.364;2023-08-31T03:00:12;2.55;;;1.13;;
48026;SDS011;50714;49.208;5.364;2023-08-31T03:10:13;2.28;;;1.20;;
48026;SDS011;50714;49.208;5.364;2023-08-31T03:20:13;1.40;;;1.05;;
48026;SDS011;50714;49.208;5.364;2023-08-31T03:30:14;1.67;;;1.10;;
48026;SDS011;50714;49.208;5.364;2023-08-31T03:40:14;1.27;;;1.15;;
48026;SDS011;50714;49.208;5.364;2023-08-31T03:50:14;1.63;;;1.17;;
48026;SDS011;50714;49.208;5.364;2023-08-31T04:00:15;1.30;;;1.10;;
48026;SDS011;50714;49.208;5.364;2023-08-31T04:10:16;2.10;;;1.00;;
48026;SDS011;50714;49.208;5.364;2023-08-31T04:20:17;2.67;;;1.27;;
48026;SDS011;50714;49.208;5.364;2023-08-31T04:30:17;2.22;;;1.10;;
48026;SDS011;50714;49.208;5.364;2023-08-31T04:40:18;1.80;;;1.25;;
48026;SDS011;50714;49.208;5.364;2023-08-31T04:50:18;2.17;;;1.23;;
48026;SDS011;50714;49.208;5.364;2023-08-31T05:00:18;1.45;;;1.10;;
48026;SDS011;50714;49.208;5.364;2023-08-31T05:10:19;3.33;;;1.50;;
48026;SDS011;50714;49.208;5.364;2023-08-31T05:20:19;1.77;;;1.20;;
48026;SDS011;50714;49.208;5.364;2023-08-31T05:30:22;1.90;;;1.33;;
48026;SDS011;50714;49.208;5.364;2023-08-31T05:40:22;3.55;;;1.30;;
48026;SDS011;50714;49.208;5.364;2023-08-31T05:50:23;1.52;;;1.30;;
48026;SDS011;50714;49.208;5.364;2023-08-31T06:00:23;1.42;;;1.20;;
48026;SDS011;50714;49.208;5.364;2023-08-31T06:10:23;2.70;;;1.38;;
48026;SDS011;50714;49.208;5.364;2023-08-31T06:20:24;3.70;;;1.77;;
48026;SDS011;50714;49.208;5.364;2023-08-31T06:30:24;2.92;;;1.52;;
48026;SDS011;50714;49.208;5.364;2023-08-31T06:40:25;3.53;;;2.15;;
48026;SDS011;50714;49.208;5.364;2023-08-31T06:50:25;3.97;;;1.90;;
48026;SDS011;50714;49.208;5.364;2023-08-31T07:00:27;3.75;;;1.90;;
48026;SDS011;50714;49.208;5.364;2023-08-31T07:10:28;4.78;;;2.20;;
48026;SDS011;50714;49.208;5.364;2023-08-31T07:20:28;2.45;;;1.80;;
48026;SDS011;50714;49.208;5.364;2023-08-31T07:30:28;2.53;;;1.60;;
48026;SDS011;50714;49.208;5.364;2023-08-31T07:40:30;2.03;;;1.65;;
48026;SDS011;50714;49.208;5.364;2023-08-31T07:50:30;3.40;;;1.73;;
48026;SDS011;50714;49.208;5.364;2023-08-31T08:00:30;2.38;;;1.90;;
48026;SDS011;50714;49.208;5.364;2023-08-31T08:10:31;2.35;;;1.35;;
48026;SDS011;50714;49.208;5.364;2023-08-31T08:20:31;2.17;;;1.30;;
48026;SDS011;50714;49.208;5.364;2023-08-31T08:30:31;2.88;;;1.70;;
48026;SDS011;50714;49.208;5.364;2023-08-31T08:40:32;2.60;;;1.17;;
48026;SDS011;50714;49.208;5.364;2023-08-31T08:50:34;3.42;;;1.20;;
48026;SDS011;50714;49.208;5.364;2023-08-31T09:00:35;2.05;;;1.20;;
48026;SDS011;50714;49.208;5.364;2023-08-31T09:10:40;2.65;;;1.30;;
48026;SDS011;50714;49.208;5.364;2023-08-31T09:20:44;3.28;;;1.50;;
48026;SDS011;50714;49.208;5.364;2023-08-31T09:30:47;2.88;;;1.50;;
48026;SDS011;50714;49.208;5.364;2023-08-31T09:40:48;2.33;;;1.23;;
48026;SDS011;50714;49.208;5.364;2023-08-31T09:50:48;2.83;;;1.42;;
48026;SDS011;50714;49.208;5.364;2023-08-31T10:00:52;1.77;;;1.27;;
48026;SDS011;50714;49.208;5.364;2023-08-31T10:10:52;2.38;;;1.35;;
48026;SDS011;50714;49.208;5.364;2023-08-31T10:20:54;2.88;;;1.33;;
48026;SDS011;50714;49.208;5.364;2023-08-31T10:31:04;3.15;;;1.50;;
48026;SDS011;50714;49.208;5.364;2023-08-31T10:51:06;2.88;;;1.40;;
48026;SDS011;50714;49.208;5.364;2023-08-31T11:01:06;3.97;;;1.70;;
48026;SDS011;50714;49.208;5.364;2023-08-31T11:11:07;3.50;;;1.40;;
48026;SDS011;50714;49.208;5.364;2023-08-31T11:21:07;2.90;;;1.40;;
48026;SDS011;50714;49.208;5.364;2023-08-31T11:31:07;2.70;;;1.38;;
48026;SDS011;50714;49.208;5.364;2023-08-31T11:41:08;2.95;;;1.50;;
48026;SDS011;50714;49.208;5.364;2023-08-31T11:51:08;2.75;;;1.70;;
48026;SDS011;50714;49.208;5.364;2023-08-31T12:01:09;3.30;;;1.60;;
48026;SDS011;50714;49.208;5.364;2023-08-31T12:11:10;3.25;;;1.52;;
48026;SDS011;50714;49.208;5.364;2023-08-31T12:21:10;2.53;;;1.30;;
48026;SDS011;50714;49.208;5.364;2023-08-31T12:31:11;4.47;;;1.60;;
48026;SDS011;50714;49.208;5.364;2023-08-31T12:41:11;3.33;;;1.40;;
48026;SDS011;50714;49.208;5.364;2023-08-31T12:51:12;3.20;;;1.30;;
48026;SDS011;50714;49.208;5.364;2023-08-31T13:01:12;4.53;;;1.60;;
48026;SDS011;50714;49.208;5.364;2023-08-31T13:11:12;2.85;;;1.30;;
48026;SDS011;50714;49.208;5.364;2023-08-31T13:21:13;3.08;;;1.42;;
48026;SDS011;50714;49.208;5.364;2023-08-31T13:31:13;1.80;;;1.00;;
48026;SDS011;50714;49.208;5.364;2023-08-31T13:41:13;3.45;;;1.45;;
48026;SDS011;50714;49.208;5.364;2023-08-31T13:51:14;2.63;;;1.20;;
48026;SDS011;50714;49.208;5.364;2023-08-31T14:01:14;2.65;;;1.30;;
48026;SDS011;50714;49.208;5.364;2023-08-31T14:11:14;3.85;;;1.35;;
48026;SDS011;50714;49.208;5.364;2023-08-31T14:21:15;2.58;;;1.17;;
48026;SDS011;50714;49.208;5.364;2023-08-31T14:31:17;3.67;;;1.50;;
48026;SDS011;50714;49.208;5.364;2023-08-31T14:41:17;2.80;;;1.45;;
48026;SDS011;50714;49.208;5.364;2023-08-31T14:51:18;2.50;;;1.50;;
48026;SDS011;50714;49.208;5.364;2023-08-31T15:01:18;2.28;;;1.50;;
48026;SDS011;50714;49.208;5.364;2023-08-31T15:11:19;1.23;;;1.08;;
48026;SDS011;50714;49.208;5.364;2023-08-31T15:21:19;1.85;;;1.27;;
48026;SDS011;50714;49.208;5.364;2023-08-31T15:31:19;2.33;;;1.30;;
48026;SDS011;50714;49.208;5.364;2023-08-31T15:41:20;2.67;;;1.50;;
48026;SDS011;50714;49.208;5.364;2023-08-31T15:51:20;2.65;;;2.05;;
48026;SDS011;50714;49.208;5.364;2023-08-31T16:01:20;2.25;;;1.55;;
48026;SDS011;50714;49.208;5.364;2023-08-31T16:11:21;2.47;;;1.45;;
48026;SDS011;50714;49.208;5.364;2023-08-31T16:21:24;2.75;;;1.83;;
48026;SDS011;50714;49.208;5.364;2023-08-31T16:31:24;2.53;;;1.60;;
48026;SDS011;50714;49.208;5.364;2023-08-31T16:41:24;2.53;;;1.35;;
48026;SDS011;50714;49.208;5.364;2023-08-31T16:51:25;1.83;;;1.40;;
48026;SDS011;50714;49.208;5.364;2023-08-31T17:01:25;2.53;;;1.50;;
48026;SDS011;50714;49.208;5.364;2023-08-31T17:11:26;3.33;;;1.50;;
48026;SDS011;50714;49.208;5.364;2023-08-31T17:21:27;2.53;;;1.20;;
48026;SDS011;50714;49.208;5.364;2023-08-31T17:31:27;2.92;;;1.40;;
48026;SDS011;50714;49.208;5.364;2023-08-31T17:41:28;2.25;;;1.40;;
48026;SDS011;50714;49.208;5.364;2023-08-31T17:51:28;2.97;;;1.73;;
48026;SDS011;50714;49.208;5.364;2023-08-31T18:01:28;2.47;;;1.45;;
48026;SDS011;50714;49.208;5.364;2023-08-31T18:11:29;10.30;;;8.05;;
48026;SDS011;50714;49.208;5.364;2023-08-31T18:21:29;17.38;;;13.82;;
48026;SDS011;50714;49.208;5.364;2023-08-31T18:31:29;7.55;;;6.22;;
48026;SDS011;50714;49.208;5.364;2023-08-31T18:41:30;4.05;;;2.88;;
48026;SDS011;50714;49.208;5.364;2023-08-31T18:51:30;59.65;;;45.42;;
48026;SDS011;50714;49.208;5.364;2023-08-31T19:01:33;169.70;;;117.90;;
48026;SDS011;50714;49.208;5.364;2023-08-31T19:11:33;153.65;;;108.07;;
48026;SDS011;50714;49.208;5.364;2023-08-31T19:21:34;83.85;;;74.80;;
48026;SDS011;50714;49.208;5.364;2023-08-31T19:31:34;42.22;;;38.08;;
48026;SDS011;50714;49.208;5.364;2023-08-31T19:41:35;50.80;;;46.80;;
48026;SDS011;50714;49.208;5.364;2023-08-31T19:51:35;17.42;;;16.10;;
48026;SDS011;50714;49.208;5.364;2023-08-31T20:01:36;8.70;;;8.00;;
48026;SDS011;50714;49.208;5.364;2023-08-31T20:11:39;4.35;;;3.75;;
48026;SDS011;50714;49.208;5.364;2023-08-31T20:21:39;2.97;;;2.63;;
48026;SDS011;50714;49.208;5.364;2023-08-31T20:31:39;3.60;;;1.70;;
48026;SDS011;50714;49.208;5.364;2023-08-31T20:41:40;3.15;;;1.10;;
48026;SDS011;50714;49.208;5.364;2023-08-31T20:51:40;0.80;;;0.80;;
48026;SDS011;50714;49.208;5.364;2023-08-31T21:01:41;1.13;;;0.77;;
48026;SDS011;50714;49.208;5.364;2023-08-31T21:11:42;1.10;;;0.60;;
48026;SDS011;50714;49.208;5.364;2023-08-31T21:21:43;0.40;;;0.40;;
48026;SDS011;50714;49.208;5.364;2023-08-31T21:31:43;0.30;;;0.30;;
48026;SDS011;50714;49.208;5.364;2023-08-31T21:41:43;0.52;;;0.40;;
48026;SDS011;50714;49.208;5.364;2023-08-31T21:51:44;0.50;;;0.50;;
48026;SDS011;50714;49.208;5.364;2023-08-31T22:01:44;0.50;;;0.50;;
48026;SDS011;50714;49.208;5.364;2023-08-31T22:11:44;0.73;;;0.73;;
48026;SDS011;50714;49.208;5.364;2023-08-31T22:21:47;1.65;;;0.80;;
48026;SDS011;50714;49.208;5.364;2023-08-31T22:31:47;1.85;;;1.20;;
48026;SDS011;50714;49.208;5.364;2023-08-31T22:41:48;1.88;;;1.48;;
48026;SDS011;50714;49.208;5.364;2023-08-31T22:51:48;1.63;;;1.40;;
48026;SDS011;50714;49.208;5.364;2023-08-31T23:01:48;1.55;;;1.35;;
48026;SDS011;50714;49.208;5.364;2023-08-31T23:11:49;1.23;;;1.08;;
48026;SDS011;50714;49.208;5.364;2023-08-31T23:21:50;1.60;;;1.30;;
48026;SDS011;50714;49.208;5.364;2023-08-31T23:31:50;2.00;;;1.70;;
48026;SDS011;50714;49.208;5.364;2023-08-31T23:41:51;2.38;;;1.45;;
48026;SDS011;50714;49.208;5.364;2023-08-31T23:51:51;1.58;;;1.48;;
